sensor_id;sensor_type;location;lat;lon;timestamp;P1;durP1;ratioP1;P2;durP2;ratioP2
14613;SDS011;7393;51.446;6.800;2024-02-26T00:01:54;3.23;;;1.90;;
14613;SDS011;7393;51.446;6.800;2024-02-26T00:04:21;2.20;;;1.63;;
14613;SDS011;7393;51.446;6.800;2024-02-26T00:06:48;2.17;;;1.87;;
14613;SDS011;7393;51.446;6.800;2024-02-26T00:09:17;4.77;;;1.67;;
14613;SDS011;7393;51.446;6.800;2024-02-26T00:11:44;3.57;;;1.80;;
14613;SDS011;7393;51.446;6.800;2024-02-26T00:14:11;2.73;;;1.70;;
14613;SDS011;7393;51.446;6.800;2024-02-26T00:16:39;3.63;;;1.70;;
14613;SDS011;7393;51.446;6.800;2024-02-26T00:19:06;2.33;;;1.63;;
14613;SDS011;7393;51.446;6.800;2024-02-26T00:21:33;2.40;;;1.83;;
14613;SDS011;7393;51.446;6.800;2024-02-26T00:24:00;2.07;;;1.50;;
14613;SDS011;7393;51.446;6.800;2024-02-26T00:26:28;2.47;;;1.80;;
14613;SDS011;7393;51.446;6.800;2024-02-26T00:28:55;2.30;;;1.47;;
14613;SDS011;7393;51.446;6.800;2024-02-26T00:31:22;2.50;;;1.60;;
14613;SDS011;7393;51.446;6.800;2024-02-26T00:33:49;2.57;;;1.50;;
14613;SDS011;7393;51.446;6.800;2024-02-26T00:36:15;2.27;;;1.50;;
14613;SDS011;7393;51.446;6.800;2024-02-26T00:38:43;2.00;;;1.70;;
14613;SDS011;7393;51.446;6.800;2024-02-26T00:41:15;2.07;;;1.60;;
14613;SDS011;7393;51.446;6.800;2024-02-26T00:43:43;4.07;;;1.77;;
14613;SDS011;7393;51.446;6.800;2024-02-26T00:46:10;2.13;;;1.70;;
14613;SDS011;7393;51.446;6.800;2024-02-26T00:48:37;3.93;;;1.60;;
14613;SDS011;7393;51.446;6.800;2024-02-26T00:51:04;2.23;;;1.47;;
14613;SDS011;7393;51.446;6.800;2024-02-26T00:53:32;2.23;;;1.53;;
14613;SDS011;7393;51.446;6.800;2024-02-26T00:55:59;2.53;;;1.50;;
14613;SDS011;7393;51.446;6.800;2024-02-26T00:58:26;2.17;;;1.50;;
14613;SDS011;7393;51.446;6.800;2024-02-26T01:00:54;2.83;;;1.30;;
14613;SDS011;7393;51.446;6.800;2024-02-26T01:03:21;2.20;;;1.60;;
14613;SDS011;7393;51.446;6.800;2024-02-26T01:05:48;2.27;;;1.70;;
14613;SDS011;7393;51.446;6.800;2024-02-26T01:08:15;1.87;;;1.30;;
14613;SDS011;7393;51.446;6.800;2024-02-26T01:10:41;2.70;;;1.43;;
14613;SDS011;7393;51.446;6.800;2024-02-26T01:13:08;2.50;;;1.33;;
14613;SDS011;7393;51.446;6.800;2024-02-26T01:15:34;3.23;;;1.40;;
14613;SDS011;7393;51.446;6.800;2024-02-26T01:18:03;2.00;;;1.30;;
14613;SDS011;7393;51.446;6.800;2024-02-26T01:20:30;2.97;;;1.40;;
14613;SDS011;7393;51.446;6.800;2024-02-26T01:22:56;2.33;;;1.20;;
14613;SDS011;7393;51.446;6.800;2024-02-26T01:25:23;2.40;;;1.50;;
14613;SDS011;7393;51.446;6.800;2024-02-26T01:27:50;2.33;;;1.40;;
14613;SDS011;7393;51.446;6.800;2024-02-26T01:30:16;1.90;;;1.30;;
14613;SDS011;7393;51.446;6.800;2024-02-26T01:32:43;2.20;;;1.33;;
14613;SDS011;7393;51.446;6.800;2024-02-26T01:35:11;1.50;;;1.30;;
14613;SDS011;7393;51.446;6.800;2024-02-26T01:37:38;2.50;;;1.20;;
14613;SDS011;7393;51.446;6.800;2024-02-26T01:40:05;3.10;;;1.67;;
14613;SDS011;7393;51.446;6.800;2024-02-26T01:42:33;1.60;;;1.30;;
14613;SDS011;7393;51.446;6.800;2024-02-26T01:45:00;1.90;;;1.67;;
14613;SDS011;7393;51.446;6.800;2024-02-26T01:47:27;1.93;;;1.73;;
14613;SDS011;7393;51.446;6.800;2024-02-26T01:49:55;2.03;;;1.50;;
14613;SDS011;7393;51.446;6.800;2024-02-26T01:52:23;3.37;;;1.77;;
14613;SDS011;7393;51.446;6.800;2024-02-26T01:54:50;1.70;;;1.50;;
14613;SDS011;7393;51.446;6.800;2024-02-26T01:57:17;2.53;;;1.60;;
14613;SDS011;7393;51.446;6.800;2024-02-26T01:59:44;3.50;;;1.60;;
14613;SDS011;7393;51.446;6.800;2024-02-26T02:02:11;3.57;;;1.57;;
14613;SDS011;7393;51.446;6.800;2024-02-26T02:04:39;4.27;;;1.87;;
14613;SDS011;7393;51.446;6.800;2024-02-26T02:07:06;1.97;;;1.50;;
14613;SDS011;7393;51.446;6.800;2024-02-26T02:09:34;1.87;;;1.50;;
14613;SDS011;7393;51.446;6.800;2024-02-26T02:12:01;1.63;;;1.40;;
14613;SDS011;7393;51.446;6.800;2024-02-26T02:14:28;4.80;;;1.70;;
14613;SDS011;7393;51.446;6.800;2024-02-26T02:16:55;2.93;;;1.73;;
14613;SDS011;7393;51.446;6.800;2024-02-26T02:19:22;2.87;;;1.80;;
14613;SDS011;7393;51.446;6.800;2024-02-26T02:21:50;3.00;;;1.73;;
14613;SDS011;7393;51.446;6.800;2024-02-26T02:24:17;2.43;;;1.70;;
14613;SDS011;7393;51.446;6.800;2024-02-26T02:26:44;4.37;;;1.60;;
14613;SDS011;7393;51.446;6.800;2024-02-26T02:29:11;1.77;;;1.50;;
14613;SDS011;7393;51.446;6.800;2024-02-26T02:31:38;2.87;;;1.97;;
14613;SDS011;7393;51.446;6.800;2024-02-26T02:34:05;4.53;;;1.87;;
14613;SDS011;7393;51.446;6.800;2024-02-26T02:36:32;3.33;;;2.40;;
14613;SDS011;7393;51.446;6.800;2024-02-26T02:39:01;2.97;;;1.93;;
14613;SDS011;7393;51.446;6.800;2024-02-26T02:41:28;2.80;;;1.83;;
14613;SDS011;7393;51.446;6.800;2024-02-26T02:43:55;3.27;;;1.90;;
14613;SDS011;7393;51.446;6.800;2024-02-26T02:46:22;2.10;;;1.80;;
14613;SDS011;7393;51.446;6.800;2024-02-26T02:48:49;3.50;;;2.20;;
14613;SDS011;7393;51.446;6.800;2024-02-26T02:51:16;2.63;;;1.90;;
14613;SDS011;7393;51.446;6.800;2024-02-26T02:53:42;2.00;;;1.70;;
14613;SDS011;7393;51.446;6.800;2024-02-26T02:56:11;2.53;;;1.80;;
14613;SDS011;7393;51.446;6.800;2024-02-26T02:58:37;2.17;;;1.80;;
14613;SDS011;7393;51.446;6.800;2024-02-26T03:01:04;2.13;;;1.70;;
14613;SDS011;7393;51.446;6.800;2024-02-26T03:03:31;2.43;;;2.00;;
14613;SDS011;7393;51.446;6.800;2024-02-26T03:05:58;2.60;;;1.60;;
14613;SDS011;7393;51.446;6.800;2024-02-26T03:08:24;2.43;;;1.80;;
14613;SDS011;7393;51.446;6.800;2024-02-26T03:10:51;4.17;;;2.10;;
14613;SDS011;7393;51.446;6.800;2024-02-26T03:13:19;2.40;;;1.93;;
14613;SDS011;7393;51.446;6.800;2024-02-26T03:15:46;3.90;;;1.70;;
14613;SDS011;7393;51.446;6.800;2024-02-26T03:18:13;2.47;;;1.80;;
14613;SDS011;7393;51.446;6.800;2024-02-26T03:20:40;3.50;;;1.80;;
14613;SDS011;7393;51.446;6.800;2024-02-26T03:23:06;2.93;;;2.00;;
14613;SDS011;7393;51.446;6.800;2024-02-26T03:25:36;3.53;;;2.00;;
14613;SDS011;7393;51.446;6.800;2024-02-26T03:28:04;2.70;;;1.93;;
14613;SDS011;7393;51.446;6.800;2024-02-26T03:30:32;2.07;;;1.70;;
14613;SDS011;7393;51.446;6.800;2024-02-26T03:32:59;3.73;;;1.73;;
14613;SDS011;7393;51.446;6.800;2024-02-26T03:35:26;2.10;;;1.73;;
14613;SDS011;7393;51.446;6.800;2024-02-26T03:37:53;3.30;;;2.10;;
14613;SDS011;7393;51.446;6.800;2024-02-26T03:40:19;2.47;;;2.17;;
14613;SDS011;7393;51.446;6.800;2024-02-26T03:42:46;3.43;;;2.13;;
14613;SDS011;7393;51.446;6.800;2024-02-26T03:45:13;2.57;;;2.27;;
14613;SDS011;7393;51.446;6.800;2024-02-26T03:47:41;3.93;;;2.10;;
14613;SDS011;7393;51.446;6.800;2024-02-26T03:50:08;2.30;;;2.10;;
14613;SDS011;7393;51.446;6.800;2024-02-26T03:52:35;3.03;;;2.43;;
14613;SDS011;7393;51.446;6.800;2024-02-26T03:55:02;2.40;;;2.20;;
14613;SDS011;7393;51.446;6.800;2024-02-26T03:57:29;3.20;;;2.30;;
14613;SDS011;7393;51.446;6.800;2024-02-26T03:59:56;3.67;;;2.10;;
14613;SDS011;7393;51.446;6.800;2024-02-26T04:02:23;2.23;;;2.00;;
14613;SDS011;7393;51.446;6.800;2024-02-26T04:04:52;2.77;;;2.10;;
14613;SDS011;7393;51.446;6.800;2024-02-26T04:07:18;2.87;;;2.00;;
14613;SDS011;7393;51.446;6.800;2024-02-26T04:09:45;3.00;;;1.60;;
14613;SDS011;7393;51.446;6.800;2024-02-26T04:12:12;2.80;;;2.03;;
14613;SDS011;7393;51.446;6.800;2024-02-26T04:14:39;2.17;;;1.90;;
14613;SDS011;7393;51.446;6.800;2024-02-26T04:17:06;2.80;;;1.97;;
14613;SDS011;7393;51.446;6.800;2024-02-26T04:19:33;4.33;;;2.00;;
14613;SDS011;7393;51.446;6.800;2024-02-26T04:22:01;3.93;;;2.20;;
14613;SDS011;7393;51.446;6.800;2024-02-26T04:24:28;3.07;;;1.80;;
14613;SDS011;7393;51.446;6.800;2024-02-26T04:26:54;3.70;;;2.20;;
14613;SDS011;7393;51.446;6.800;2024-02-26T04:29:21;3.23;;;2.40;;
14613;SDS011;7393;51.446;6.800;2024-02-26T04:31:48;3.20;;;2.20;;
14613;SDS011;7393;51.446;6.800;2024-02-26T04:34:15;4.10;;;2.33;;
14613;SDS011;7393;51.446;6.800;2024-02-26T04:36:41;2.43;;;2.13;;
14613;SDS011;7393;51.446;6.800;2024-02-26T04:39:10;4.93;;;2.73;;
14613;SDS011;7393;51.446;6.800;2024-02-26T04:41:37;2.47;;;2.27;;
14613;SDS011;7393;51.446;6.800;2024-02-26T04:44:04;2.70;;;2.17;;
14613;SDS011;7393;51.446;6.800;2024-02-26T04:46:31;3.70;;;2.43;;
14613;SDS011;7393;51.446;6.800;2024-02-26T04:48:57;4.03;;;2.57;;
14613;SDS011;7393;51.446;6.800;2024-02-26T04:51:24;4.53;;;2.30;;
14613;SDS011;7393;51.446;6.800;2024-02-26T04:53:51;2.90;;;2.60;;
14613;SDS011;7393;51.446;6.800;2024-02-26T04:56:21;3.23;;;2.30;;
14613;SDS011;7393;51.446;6.800;2024-02-26T04:58:48;3.47;;;2.50;;
14613;SDS011;7393;51.446;6.800;2024-02-26T05:01:15;3.13;;;2.37;;
14613;SDS011;7393;51.446;6.800;2024-02-26T05:03:42;2.47;;;2.10;;
14613;SDS011;7393;51.446;6.800;2024-02-26T05:06:09;2.70;;;2.07;;
14613;SDS011;7393;51.446;6.800;2024-02-26T05:08:36;2.60;;;2.37;;
14613;SDS011;7393;51.446;6.800;2024-02-26T05:11:03;3.73;;;2.10;;
14613;SDS011;7393;51.446;6.800;2024-02-26T05:13:32;2.37;;;1.97;;
14613;SDS011;7393;51.446;6.800;2024-02-26T05:15:59;2.63;;;2.10;;
14613;SDS011;7393;51.446;6.800;2024-02-26T05:18:26;3.40;;;2.40;;
14613;SDS011;7393;51.446;6.800;2024-02-26T05:20:53;2.83;;;2.20;;
14613;SDS011;7393;51.446;6.800;2024-02-26T05:23:20;2.60;;;2.40;;
14613;SDS011;7393;51.446;6.800;2024-02-26T05:25:48;3.33;;;2.57;;
14613;SDS011;7393;51.446;6.800;2024-02-26T05:28:15;2.57;;;2.23;;
14613;SDS011;7393;51.446;6.800;2024-02-26T05:30:44;3.80;;;2.53;;
14613;SDS011;7393;51.446;6.800;2024-02-26T05:33:11;2.93;;;2.60;;
14613;SDS011;7393;51.446;6.800;2024-02-26T05:35:38;4.27;;;2.50;;
14613;SDS011;7393;51.446;6.800;2024-02-26T05:38:05;3.30;;;2.67;;
14613;SDS011;7393;51.446;6.800;2024-02-26T05:40:32;2.80;;;2.50;;
14613;SDS011;7393;51.446;6.800;2024-02-26T05:42:59;3.03;;;2.20;;
14613;SDS011;7393;51.446;6.800;2024-02-26T05:45:26;2.87;;;2.40;;
14613;SDS011;7393;51.446;6.800;2024-02-26T05:47:54;3.00;;;2.40;;
14613;SDS011;7393;51.446;6.800;2024-02-26T05:50:21;3.37;;;2.20;;
14613;SDS011;7393;51.446;6.800;2024-02-26T05:52:47;4.03;;;2.37;;
14613;SDS011;7393;51.446;6.800;2024-02-26T05:55:14;3.03;;;2.60;;
14613;SDS011;7393;51.446;6.800;2024-02-26T05:57:41;3.00;;;2.60;;
14613;SDS011;7393;51.446;6.800;2024-02-26T06:00:08;3.70;;;2.60;;
14613;SDS011;7393;51.446;6.800;2024-02-26T06:02:37;5.83;;;2.70;;
14613;SDS011;7393;51.446;6.800;2024-02-26T06:05:06;2.97;;;2.33;;
14613;SDS011;7393;51.446;6.800;2024-02-26T06:07:33;3.80;;;2.23;;
14613;SDS011;7393;51.446;6.800;2024-02-26T06:10:00;4.83;;;2.70;;
14613;SDS011;7393;51.446;6.800;2024-02-26T06:12:29;2.83;;;2.50;;
14613;SDS011;7393;51.446;6.800;2024-02-26T06:14:57;3.67;;;2.60;;
14613;SDS011;7393;51.446;6.800;2024-02-26T06:17:26;4.07;;;3.10;;
14613;SDS011;7393;51.446;6.800;2024-02-26T06:19:53;2.93;;;2.43;;
14613;SDS011;7393;51.446;6.800;2024-02-26T06:22:21;5.10;;;2.80;;
14613;SDS011;7393;51.446;6.800;2024-02-26T06:24:48;2.70;;;2.50;;
14613;SDS011;7393;51.446;6.800;2024-02-26T06:27:15;5.20;;;2.70;;
14613;SDS011;7393;51.446;6.800;2024-02-26T06:29:42;3.53;;;2.33;;
14613;SDS011;7393;51.446;6.800;2024-02-26T06:32:09;3.03;;;2.43;;
14613;SDS011;7393;51.446;6.800;2024-02-26T06:34:36;2.97;;;2.57;;
14613;SDS011;7393;51.446;6.800;2024-02-26T06:37:03;4.70;;;2.80;;
14613;SDS011;7393;51.446;6.800;2024-02-26T06:39:31;3.00;;;2.57;;
14613;SDS011;7393;51.446;6.800;2024-02-26T06:41:58;4.73;;;2.73;;
14613;SDS011;7393;51.446;6.800;2024-02-26T06:44:26;2.90;;;2.60;;
14613;SDS011;7393;51.446;6.800;2024-02-26T06:46:56;3.73;;;2.77;;
14613;SDS011;7393;51.446;6.800;2024-02-26T06:49:23;6.27;;;2.60;;
14613;SDS011;7393;51.446;6.800;2024-02-26T06:51:50;5.10;;;2.73;;
14613;SDS011;7393;51.446;6.800;2024-02-26T06:54:17;5.07;;;3.13;;
14613;SDS011;7393;51.446;6.800;2024-02-26T06:56:45;4.70;;;2.90;;
14613;SDS011;7393;51.446;6.800;2024-02-26T06:59:12;4.37;;;2.80;;
14613;SDS011;7393;51.446;6.800;2024-02-26T07:01:39;4.47;;;2.80;;
14613;SDS011;7393;51.446;6.800;2024-02-26T07:04:07;3.60;;;2.67;;
14613;SDS011;7393;51.446;6.800;2024-02-26T07:06:35;3.17;;;2.67;;
14613;SDS011;7393;51.446;6.800;2024-02-26T07:09:02;2.97;;;2.30;;
14613;SDS011;7393;51.446;6.800;2024-02-26T07:11:29;3.47;;;2.80;;
14613;SDS011;7393;51.446;6.800;2024-02-26T07:13:57;3.43;;;2.80;;
14613;SDS011;7393;51.446;6.800;2024-02-26T07:16:26;3.57;;;3.10;;
14613;SDS011;7393;51.446;6.800;2024-02-26T07:18:53;3.80;;;2.60;;
14613;SDS011;7393;51.446;6.800;2024-02-26T07:21:20;3.73;;;2.93;;
14613;SDS011;7393;51.446;6.800;2024-02-26T07:23:46;2.83;;;2.43;;
14613;SDS011;7393;51.446;6.800;2024-02-26T07:26:13;5.57;;;2.87;;
14613;SDS011;7393;51.446;6.800;2024-02-26T07:28:42;4.43;;;3.10;;
14613;SDS011;7393;51.446;6.800;2024-02-26T07:31:10;3.13;;;2.60;;
14613;SDS011;7393;51.446;6.800;2024-02-26T07:33:37;5.03;;;2.90;;
14613;SDS011;7393;51.446;6.800;2024-02-26T07:36:04;2.90;;;2.60;;
14613;SDS011;7393;51.446;6.800;2024-02-26T07:38:31;3.13;;;2.83;;
14613;SDS011;7393;51.446;6.800;2024-02-26T07:40:58;3.90;;;2.83;;
14613;SDS011;7393;51.446;6.800;2024-02-26T07:43:26;7.50;;;2.80;;
14613;SDS011;7393;51.446;6.800;2024-02-26T07:45:52;3.43;;;2.80;;
14613;SDS011;7393;51.446;6.800;2024-02-26T07:48:21;4.07;;;2.90;;
14613;SDS011;7393;51.446;6.800;2024-02-26T07:50:47;5.30;;;2.83;;
14613;SDS011;7393;51.446;6.800;2024-02-26T07:53:14;5.57;;;3.00;;
14613;SDS011;7393;51.446;6.800;2024-02-26T07:55:41;5.33;;;3.00;;
14613;SDS011;7393;51.446;6.800;2024-02-26T07:58:08;4.03;;;2.83;;
14613;SDS011;7393;51.446;6.800;2024-02-26T08:00:35;3.23;;;2.93;;
14613;SDS011;7393;51.446;6.800;2024-02-26T08:03:01;4.13;;;2.90;;
14613;SDS011;7393;51.446;6.800;2024-02-26T08:05:30;4.03;;;2.80;;
14613;SDS011;7393;51.446;6.800;2024-02-26T08:07:56;5.00;;;3.10;;
14613;SDS011;7393;51.446;6.800;2024-02-26T08:10:23;4.57;;;3.30;;
14613;SDS011;7393;51.446;6.800;2024-02-26T08:12:50;3.60;;;2.90;;
14613;SDS011;7393;51.446;6.800;2024-02-26T08:15:17;3.87;;;3.00;;
14613;SDS011;7393;51.446;6.800;2024-02-26T08:17:44;3.70;;;3.20;;
14613;SDS011;7393;51.446;6.800;2024-02-26T08:20:12;4.23;;;3.13;;
14613;SDS011;7393;51.446;6.800;2024-02-26T08:22:41;4.67;;;3.50;;
14613;SDS011;7393;51.446;6.800;2024-02-26T08:25:08;5.80;;;3.40;;
14613;SDS011;7393;51.446;6.800;2024-02-26T08:27:35;4.27;;;3.17;;
14613;SDS011;7393;51.446;6.800;2024-02-26T08:30:02;5.03;;;3.43;;
14613;SDS011;7393;51.446;6.800;2024-02-26T08:32:30;4.20;;;3.20;;
14613;SDS011;7393;51.446;6.800;2024-02-26T08:34:57;4.67;;;3.30;;
14613;SDS011;7393;51.446;6.800;2024-02-26T08:37:23;6.63;;;3.70;;
14613;SDS011;7393;51.446;6.800;2024-02-26T08:39:51;6.23;;;3.20;;
14613;SDS011;7393;51.446;6.800;2024-02-26T08:42:18;5.00;;;2.97;;
14613;SDS011;7393;51.446;6.800;2024-02-26T08:44:45;4.67;;;2.87;;
14613;SDS011;7393;51.446;6.800;2024-02-26T08:47:12;3.83;;;3.13;;
14613;SDS011;7393;51.446;6.800;2024-02-26T08:49:42;4.90;;;3.37;;
14613;SDS011;7393;51.446;6.800;2024-02-26T08:52:08;4.40;;;3.40;;
14613;SDS011;7393;51.446;6.800;2024-02-26T08:54:35;5.53;;;3.27;;
14613;SDS011;7393;51.446;6.800;2024-02-26T08:57:04;3.40;;;3.10;;
14613;SDS011;7393;51.446;6.800;2024-02-26T08:59:30;6.20;;;3.50;;
14613;SDS011;7393;51.446;6.800;2024-02-26T09:01:57;3.90;;;3.20;;
14613;SDS011;7393;51.446;6.800;2024-02-26T09:04:24;5.23;;;3.77;;
14613;SDS011;7393;51.446;6.800;2024-02-26T09:06:51;5.77;;;3.37;;
14613;SDS011;7393;51.446;6.800;2024-02-26T09:09:18;3.40;;;2.83;;
14613;SDS011;7393;51.446;6.800;2024-02-26T09:11:47;6.77;;;3.03;;
14613;SDS011;7393;51.446;6.800;2024-02-26T09:14:17;4.10;;;2.93;;
14613;SDS011;7393;51.446;6.800;2024-02-26T09:16:45;3.30;;;2.90;;
14613;SDS011;7393;51.446;6.800;2024-02-26T09:19:13;3.90;;;3.00;;
14613;SDS011;7393;51.446;6.800;2024-02-26T09:21:41;6.30;;;3.43;;
14613;SDS011;7393;51.446;6.800;2024-02-26T09:24:09;3.63;;;2.90;;
14613;SDS011;7393;51.446;6.800;2024-02-26T09:26:36;3.60;;;3.00;;
14613;SDS011;7393;51.446;6.800;2024-02-26T09:29:03;4.77;;;2.93;;
14613;SDS011;7393;51.446;6.800;2024-02-26T09:31:32;4.07;;;2.80;;
14613;SDS011;7393;51.446;6.800;2024-02-26T09:33:59;5.90;;;3.27;;
14613;SDS011;7393;51.446;6.800;2024-02-26T09:36:26;3.80;;;3.07;;
14613;SDS011;7393;51.446;6.800;2024-02-26T09:38:52;3.40;;;2.70;;
14613;SDS011;7393;51.446;6.800;2024-02-26T09:41:19;3.07;;;2.77;;
14613;SDS011;7393;51.446;6.800;2024-02-26T09:43:46;4.00;;;3.10;;
14613;SDS011;7393;51.446;6.800;2024-02-26T09:46:18;3.30;;;2.83;;
14613;SDS011;7393;51.446;6.800;2024-02-26T09:48:47;4.10;;;2.77;;
14613;SDS011;7393;51.446;6.800;2024-02-26T09:51:14;4.07;;;3.10;;
14613;SDS011;7393;51.446;6.800;2024-02-26T09:53:43;6.80;;;3.10;;
14613;SDS011;7393;51.446;6.800;2024-02-26T09:56:11;3.80;;;3.37;;
14613;SDS011;7393;51.446;6.800;2024-02-26T09:58:39;4.33;;;2.90;;
14613;SDS011;7393;51.446;6.800;2024-02-26T10:01:10;4.03;;;3.20;;
14613;SDS011;7393;51.446;6.800;2024-02-26T10:03:41;3.17;;;2.67;;
14613;SDS011;7393;51.446;6.800;2024-02-26T10:06:11;3.37;;;3.07;;
14613;SDS011;7393;51.446;6.800;2024-02-26T10:08:38;3.73;;;2.90;;
14613;SDS011;7393;51.446;6.800;2024-02-26T10:11:06;5.40;;;3.20;;
14613;SDS011;7393;51.446;6.800;2024-02-26T10:13:34;6.43;;;3.47;;
14613;SDS011;7393;51.446;6.800;2024-02-26T10:16:00;4.70;;;3.43;;
14613;SDS011;7393;51.446;6.800;2024-02-26T10:18:38;3.47;;;3.10;;
14613;SDS011;7393;51.446;6.800;2024-02-26T10:21:12;6.10;;;3.30;;
14613;SDS011;7393;51.446;6.800;2024-02-26T10:23:41;4.43;;;3.10;;
14613;SDS011;7393;51.446;6.800;2024-02-26T10:26:08;3.63;;;2.70;;
14613;SDS011;7393;51.446;6.800;2024-02-26T10:28:38;4.83;;;2.83;;
14613;SDS011;7393;51.446;6.800;2024-02-26T10:31:06;3.70;;;3.17;;
14613;SDS011;7393;51.446;6.800;2024-02-26T10:33:33;4.03;;;3.10;;
14613;SDS011;7393;51.446;6.800;2024-02-26T10:36:00;5.63;;;3.37;;
14613;SDS011;7393;51.446;6.800;2024-02-26T10:38:29;4.03;;;3.10;;
14613;SDS011;7393;51.446;6.800;2024-02-26T10:40:56;3.40;;;2.90;;
14613;SDS011;7393;51.446;6.800;2024-02-26T10:43:22;6.10;;;3.13;;
14613;SDS011;7393;51.446;6.800;2024-02-26T10:45:51;5.20;;;3.53;;
14613;SDS011;7393;51.446;6.800;2024-02-26T10:48:18;4.77;;;3.53;;
14613;SDS011;7393;51.446;6.800;2024-02-26T10:50:45;4.43;;;3.10;;
14613;SDS011;7393;51.446;6.800;2024-02-26T10:53:15;4.83;;;3.47;;
14613;SDS011;7393;51.446;6.800;2024-02-26T10:55:48;5.47;;;3.93;;
14613;SDS011;7393;51.446;6.800;2024-02-26T10:58:16;5.20;;;3.50;;
14613;SDS011;7393;51.446;6.800;2024-02-26T11:00:43;4.30;;;3.63;;
14613;SDS011;7393;51.446;6.800;2024-02-26T11:03:12;5.50;;;3.80;;
14613;SDS011;7393;51.446;6.800;2024-02-26T11:05:41;6.80;;;4.03;;
14613;SDS011;7393;51.446;6.800;2024-02-26T11:08:09;5.10;;;4.20;;
14613;SDS011;7393;51.446;6.800;2024-02-26T11:10:37;4.27;;;3.67;;
14613;SDS011;7393;51.446;6.800;2024-02-26T11:13:06;4.23;;;3.30;;
14613;SDS011;7393;51.446;6.800;2024-02-26T11:15:38;5.63;;;3.47;;
14613;SDS011;7393;51.446;6.800;2024-02-26T11:18:06;6.23;;;3.80;;
14613;SDS011;7393;51.446;6.800;2024-02-26T11:20:34;4.13;;;3.57;;
14613;SDS011;7393;51.446;6.800;2024-02-26T11:23:04;4.17;;;3.77;;
14613;SDS011;7393;51.446;6.800;2024-02-26T11:25:31;4.60;;;3.60;;
14613;SDS011;7393;51.446;6.800;2024-02-26T11:27:58;5.00;;;3.77;;
14613;SDS011;7393;51.446;6.800;2024-02-26T11:30:30;7.27;;;4.13;;
14613;SDS011;7393;51.446;6.800;2024-02-26T11:32:59;6.07;;;4.47;;
14613;SDS011;7393;51.446;6.800;2024-02-26T11:35:26;10.63;;;6.70;;
14613;SDS011;7393;51.446;6.800;2024-02-26T11:37:55;5.90;;;4.50;;
14613;SDS011;7393;51.446;6.800;2024-02-26T11:40:23;7.53;;;3.90;;
14613;SDS011;7393;51.446;6.800;2024-02-26T11:42:51;5.47;;;4.03;;
14613;SDS011;7393;51.446;6.800;2024-02-26T11:48:19;5.97;;;3.70;;
14613;SDS011;7393;51.446;6.800;2024-02-26T11:50:48;5.53;;;3.90;;
14613;SDS011;7393;51.446;6.800;2024-02-26T11:53:19;5.07;;;4.10;;
14613;SDS011;7393;51.446;6.800;2024-02-26T11:55:46;6.23;;;4.50;;
14613;SDS011;7393;51.446;6.800;2024-02-26T11:58:13;5.83;;;4.50;;
14613;SDS011;7393;51.446;6.800;2024-02-26T12:00:40;5.77;;;4.33;;
14613;SDS011;7393;51.446;6.800;2024-02-26T12:03:08;6.27;;;4.43;;
14613;SDS011;7393;51.446;6.800;2024-02-26T12:05:37;6.23;;;4.57;;
14613;SDS011;7393;51.446;6.800;2024-02-26T12:08:05;5.10;;;4.23;;
14613;SDS011;7393;51.446;6.800;2024-02-26T12:10:33;5.53;;;4.53;;
14613;SDS011;7393;51.446;6.800;2024-02-26T12:13:05;6.00;;;4.90;;
14613;SDS011;7393;51.446;6.800;2024-02-26T12:15:36;5.93;;;4.40;;
14613;SDS011;7393;51.446;6.800;2024-02-26T12:18:04;8.20;;;5.10;;
14613;SDS011;7393;51.446;6.800;2024-02-26T12:20:34;7.23;;;5.00;;
14613;SDS011;7393;51.446;6.800;2024-02-26T12:23:01;7.03;;;5.33;;
14613;SDS011;7393;51.446;6.800;2024-02-26T12:25:29;6.87;;;4.90;;
14613;SDS011;7393;51.446;6.800;2024-02-26T12:27:57;7.33;;;5.63;;
14613;SDS011;7393;51.446;6.800;2024-02-26T12:30:25;7.47;;;5.73;;
14613;SDS011;7393;51.446;6.800;2024-02-26T12:32:54;6.37;;;5.57;;
14613;SDS011;7393;51.446;6.800;2024-02-26T12:35:23;7.93;;;5.23;;
14613;SDS011;7393;51.446;6.800;2024-02-26T12:37:51;7.67;;;5.33;;
14613;SDS011;7393;51.446;6.800;2024-02-26T12:40:19;6.27;;;5.20;;
14613;SDS011;7393;51.446;6.800;2024-02-26T12:42:47;7.50;;;5.10;;
14613;SDS011;7393;51.446;6.800;2024-02-26T12:45:14;7.87;;;5.60;;
14613;SDS011;7393;51.446;6.800;2024-02-26T12:47:42;7.50;;;5.40;;
14613;SDS011;7393;51.446;6.800;2024-02-26T12:50:10;8.80;;;6.27;;
14613;SDS011;7393;51.446;6.800;2024-02-26T12:52:38;7.23;;;4.97;;
14613;SDS011;7393;51.446;6.800;2024-02-26T12:55:08;8.10;;;5.10;;
14613;SDS011;7393;51.446;6.800;2024-02-26T12:57:37;6.70;;;5.00;;
14613;SDS011;7393;51.446;6.800;2024-02-26T13:00:06;7.47;;;4.90;;
14613;SDS011;7393;51.446;6.800;2024-02-26T13:02:37;7.70;;;5.77;;
14613;SDS011;7393;51.446;6.800;2024-02-26T13:05:05;6.83;;;5.60;;
14613;SDS011;7393;51.446;6.800;2024-02-26T13:07:33;6.57;;;5.00;;
14613;SDS011;7393;51.446;6.800;2024-02-26T13:10:00;6.00;;;4.77;;
14613;SDS011;7393;51.446;6.800;2024-02-26T13:12:28;6.07;;;5.17;;
14613;SDS011;7393;51.446;6.800;2024-02-26T13:14:59;7.67;;;5.20;;
14613;SDS011;7393;51.446;6.800;2024-02-26T13:17:25;8.80;;;5.10;;
14613;SDS011;7393;51.446;6.800;2024-02-26T13:19:53;8.30;;;4.90;;
14613;SDS011;7393;51.446;6.800;2024-02-26T13:22:20;7.10;;;4.70;;
14613;SDS011;7393;51.446;6.800;2024-02-26T13:24:53;6.63;;;4.53;;
14613;SDS011;7393;51.446;6.800;2024-02-26T13:27:21;5.20;;;4.30;;
14613;SDS011;7393;51.446;6.800;2024-02-26T13:29:50;4.60;;;3.87;;
14613;SDS011;7393;51.446;6.800;2024-02-26T13:32:33;6.47;;;4.87;;
14613;SDS011;7393;51.446;6.800;2024-02-26T13:35:07;5.47;;;4.50;;
14613;SDS011;7393;51.446;6.800;2024-02-26T13:37:35;7.17;;;4.20;;
14613;SDS011;7393;51.446;6.800;2024-02-26T13:40:04;5.43;;;4.23;;
14613;SDS011;7393;51.446;6.800;2024-02-26T13:42:32;5.47;;;4.13;;
14613;SDS011;7393;51.446;6.800;2024-02-26T13:45:00;5.83;;;3.63;;
14613;SDS011;7393;51.446;6.800;2024-02-26T13:47:27;4.20;;;3.70;;
14613;SDS011;7393;51.446;6.800;2024-02-26T13:49:54;4.43;;;3.70;;
14613;SDS011;7393;51.446;6.800;2024-02-26T13:52:22;4.17;;;3.60;;
14613;SDS011;7393;51.446;6.800;2024-02-26T13:54:48;4.50;;;3.80;;
14613;SDS011;7393;51.446;6.800;2024-02-26T13:57:16;4.93;;;3.57;;
14613;SDS011;7393;51.446;6.800;2024-02-26T13:59:43;4.87;;;3.80;;
14613;SDS011;7393;51.446;6.800;2024-02-26T14:02:11;5.80;;;3.63;;
14613;SDS011;7393;51.446;6.800;2024-02-26T14:04:38;5.83;;;4.13;;
14613;SDS011;7393;51.446;6.800;2024-02-26T14:07:04;6.00;;;3.80;;
14613;SDS011;7393;51.446;6.800;2024-02-26T14:09:31;7.30;;;3.90;;
14613;SDS011;7393;51.446;6.800;2024-02-26T14:11:58;5.27;;;3.40;;
14613;SDS011;7393;51.446;6.800;2024-02-26T14:14:26;3.70;;;3.03;;
14613;SDS011;7393;51.446;6.800;2024-02-26T14:16:53;4.63;;;3.57;;
14613;SDS011;7393;51.446;6.800;2024-02-26T14:19:22;5.60;;;3.70;;
14613;SDS011;7393;51.446;6.800;2024-02-26T14:21:48;5.73;;;3.30;;
14613;SDS011;7393;51.446;6.800;2024-02-26T14:24:15;3.43;;;3.00;;
14613;SDS011;7393;51.446;6.800;2024-02-26T14:26:42;3.93;;;3.50;;
14613;SDS011;7393;51.446;6.800;2024-02-26T14:29:09;3.80;;;3.03;;
14613;SDS011;7393;51.446;6.800;2024-02-26T14:31:35;4.57;;;3.00;;
14613;SDS011;7393;51.446;6.800;2024-02-26T14:34:02;4.07;;;3.23;;
14613;SDS011;7393;51.446;6.800;2024-02-26T14:36:30;3.47;;;3.17;;
14613;SDS011;7393;51.446;6.800;2024-02-26T14:38:57;4.17;;;3.10;;
14613;SDS011;7393;51.446;6.800;2024-02-26T14:41:24;4.47;;;3.57;;
14613;SDS011;7393;51.446;6.800;2024-02-26T14:43:50;4.47;;;3.67;;
14613;SDS011;7393;51.446;6.800;2024-02-26T14:46:18;4.90;;;3.47;;
14613;SDS011;7393;51.446;6.800;2024-02-26T14:48:44;5.63;;;3.50;;
14613;SDS011;7393;51.446;6.800;2024-02-26T14:51:11;3.57;;;3.03;;
14613;SDS011;7393;51.446;6.800;2024-02-26T14:53:39;4.17;;;3.30;;
14613;SDS011;7393;51.446;6.800;2024-02-26T14:56:06;3.50;;;3.20;;
14613;SDS011;7393;51.446;6.800;2024-02-26T14:58:34;3.90;;;3.30;;
14613;SDS011;7393;51.446;6.800;2024-02-26T15:01:03;4.33;;;3.53;;
14613;SDS011;7393;51.446;6.800;2024-02-26T15:03:30;4.57;;;3.43;;
14613;SDS011;7393;51.446;6.800;2024-02-26T15:05:56;5.53;;;3.70;;